createdAt,value
2023-05-20T00:02:03.332Z,33.40
2023-05-20T00:05:05.787Z,33.30
2023-05-20T00:08:09.486Z,32.80
2023-05-20T00:11:11.607Z,32.80
2023-05-20T00:14:14.324Z,33.70
2023-05-20T00:17:16.302Z,33.90
2023-05-20T00:20:18.564Z,33.60
2023-05-20T00:23:20.789Z,33.00
2023-05-20T00:26:23.336Z,33.20
2023-05-20T00:29:25.402Z,32.90
2023-05-20T00:32:27.751Z,32.70
2023-05-20T00:35:29.834Z,33.00
2023-05-20T00:38:32.088Z,32.90
2023-05-20T00:41:34.126Z,32.50
2023-05-20T00:44:36.408Z,33.40
2023-05-20T00:47:39.160Z,34.40
2023-05-20T00:50:41.538Z,33.40
2023-05-20T00:53:44.099Z,32.80
2023-05-20T00:56:47.548Z,33.50
2023-05-20T00:59:49.514Z,35.20
2023-05-20T01:02:51.958Z,34.90
2023-05-20T01:05:54.034Z,34.80
2023-05-20T01:08:56.451Z,34.00
2023-05-20T01:12:23.360Z,34.70
2023-05-20T01:15:27.531Z,34.70
2023-05-20T01:18:32.425Z,33.80
2023-05-20T01:21:36.461Z,34.10
2023-05-20T01:24:53.430Z,33.40
2023-05-20T01:28:00.744Z,33.00
2023-05-20T01:31:05.844Z,32.40
2023-05-20T01:34:08.547Z,31.60
2023-05-20T01:37:12.126Z,31.40
2023-05-20T01:40:18.416Z,31.60
2023-05-20T01:43:21.536Z,31.20
2023-05-20T01:46:23.837Z,32.50
2023-05-20T01:49:25.903Z,32.20
2023-05-20T01:52:28.526Z,32.30
2023-05-20T01:55:30.567Z,32.00
2023-05-20T01:58:32.840Z,32.80
2023-05-20T02:01:34.843Z,32.60
2023-05-20T02:04:37.057Z,32.50
2023-05-20T02:07:39.110Z,32.20
2023-05-20T02:10:41.289Z,31.70
2023-05-20T02:13:43.285Z,32.10
2023-05-20T02:16:47.377Z,31.90
2023-05-20T02:19:49.708Z,31.50
2023-05-20T02:22:51.985Z,31.20
2023-05-20T02:25:53.983Z,30.90
2023-05-20T02:28:56.588Z,30.90
2023-05-20T02:31:58.782Z,31.80
2023-05-20T02:35:01.172Z,31.40
2023-05-20T02:38:03.201Z,32.10
2023-05-20T02:41:05.669Z,31.60
2023-05-20T02:44:07.600Z,32.20
2023-05-20T02:47:10.405Z,33.00
2023-05-20T02:50:12.334Z,32.90
2023-05-20T02:53:14.941Z,32.50
2023-05-20T02:56:21.561Z,31.90
2023-05-20T02:59:23.805Z,31.50
2023-05-20T03:02:25.858Z,31.80
2023-05-20T03:05:28.178Z,31.80
2023-05-20T03:08:30.828Z,31.30
2023-05-20T03:11:33.480Z,31.00
2023-05-20T03:14:35.517Z,31.30
2023-05-20T03:17:37.892Z,31.00
2023-05-20T03:20:41.547Z,31.00
2023-05-20T03:23:44.775Z,31.20
2023-05-20T03:26:47.123Z,31.60
2023-05-20T03:29:49.728Z,31.40
2023-05-20T03:32:52.101Z,32.30
2023-05-20T03:35:54.448Z,32.00
2023-05-20T03:38:56.598Z,32.30
2023-05-20T03:41:58.875Z,33.10
2023-05-20T03:45:00.894Z,32.90
2023-05-20T03:48:03.649Z,32.10
2023-05-20T03:51:05.968Z,31.80
2023-05-20T03:54:08.275Z,31.20
2023-05-20T03:57:13.208Z,30.60
2023-05-20T04:00:16.888Z,30.50
2023-05-20T04:03:18.925Z,30.10
2023-05-20T04:06:22.493Z,30.40
2023-05-20T04:09:24.774Z,31.40
2023-05-20T04:12:30.657Z,33.30
2023-05-20T04:15:36.663Z,33.80
2023-05-20T04:18:39.297Z,32.80
2023-05-20T04:21:43.581Z,32.20
2023-05-20T04:24:46.094Z,32.20
2023-05-20T04:27:49.721Z,32.30
2023-05-20T04:31:00.075Z,31.80
2023-05-20T04:34:02.763Z,31.90
2023-05-20T04:37:07.774Z,31.80
2023-05-20T04:40:10.653Z,31.00
2023-05-20T04:43:12.976Z,31.00
2023-05-20T04:46:15.209Z,30.80
2023-05-20T04:49:18.099Z,30.40
2023-05-20T04:52:20.063Z,30.50
2023-05-20T04:55:24.979Z,30.70
2023-05-20T04:58:27.026Z,30.60
2023-05-20T05:01:29.218Z,31.10
2023-05-20T05:07:33.394Z,32.00
2023-05-20T05:10:36.033Z,31.70
2023-05-20T05:13:38.246Z,31.30
2023-05-20T05:16:40.227Z,32.10
2023-05-20T05:19:42.390Z,31.80
2023-05-20T05:22:45.147Z,31.30
2023-05-20T05:25:52.222Z,30.70
2023-05-20T05:28:55.242Z,31.00
2023-05-20T05:31:57.481Z,31.10
2023-05-20T05:34:59.557Z,31.40
2023-05-20T05:38:01.826Z,32.20
2023-05-20T05:41:03.809Z,32.20
2023-05-20T05:44:06.100Z,32.20
2023-05-20T05:47:08.912Z,33.10
2023-05-20T05:50:11.331Z,32.90
2023-05-20T05:53:13.354Z,32.60
2023-05-20T05:56:16.118Z,32.50
2023-05-20T05:59:18.141Z,31.70
2023-05-20T06:02:21.099Z,31.50
2023-05-20T06:05:23.056Z,30.90
2023-05-20T06:08:25.361Z,31.70
2023-05-20T06:11:27.505Z,32.10
2023-05-20T06:14:29.975Z,31.80
2023-05-20T06:17:32.001Z,32.00
2023-05-20T06:20:34.290Z,31.40
2023-05-20T06:23:36.438Z,31.10
2023-05-20T06:26:38.734Z,31.30
2023-05-20T06:29:42.457Z,31.60
2023-05-20T06:32:46.580Z,31.50
2023-05-20T06:35:48.556Z,31.40
2023-05-20T06:38:50.789Z,30.60
2023-05-20T06:41:52.723Z,30.50
2023-05-20T06:44:55.188Z,30.10
2023-05-20T06:47:57.280Z,30.00
2023-05-20T06:50:59.540Z,30.70
2023-05-20T06:54:01.668Z,30.70
2023-05-20T06:57:04.040Z,31.00
2023-05-20T07:00:06.705Z,30.40
2023-05-20T07:03:09.265Z,30.60
2023-05-20T07:06:11.263Z,30.10
2023-05-20T07:09:13.515Z,30.80
2023-05-20T07:12:15.960Z,31.20
2023-05-20T07:15:18.261Z,31.10
2023-05-20T07:18:21.599Z,31.50
2023-05-20T07:21:23.841Z,30.80
2023-05-20T07:24:25.986Z,30.50
2023-05-20T07:27:28.239Z,29.90
2023-05-20T07:30:30.223Z,30.00
2023-05-20T07:33:32.909Z,29.80
2023-05-20T07:36:35.399Z,30.00
2023-05-20T07:39:37.651Z,30.10
2023-05-20T07:42:39.631Z,30.00
2023-05-20T07:45:42.818Z,29.80
2023-05-20T07:48:45.385Z,29.70
2023-05-20T07:51:47.681Z,29.40
2023-05-20T07:54:49.697Z,29.60
2023-05-20T07:57:52.960Z,29.50
2023-05-20T08:00:55.068Z,30.20
2023-05-20T08:03:57.748Z,29.70
2023-05-20T08:07:01.284Z,29.60
2023-05-20T08:10:04.222Z,29.10
2023-05-20T08:13:06.321Z,29.20
2023-05-20T08:16:08.632Z,28.80
2023-05-20T08:19:10.717Z,29.40
2023-05-20T08:22:13.295Z,29.50
2023-05-20T08:25:16.132Z,29.40
2023-05-20T08:28:18.426Z,29.40
2023-05-20T08:31:20.435Z,29.30
2023-05-20T08:34:22.879Z,29.70
2023-05-20T08:37:24.867Z,29.70
2023-05-20T08:40:27.544Z,29.20
2023-05-20T08:43:30.366Z,28.90
2023-05-20T08:46:35.543Z,28.80
2023-05-20T08:49:38.351Z,29.00
2023-05-20T08:52:45.530Z,29.40
2023-05-20T08:55:54.317Z,29.60
2023-05-20T08:58:56.721Z,30.00
2023-05-20T09:01:58.794Z,28.90
2023-05-20T09:05:01.069Z,28.30
2023-05-20T09:08:10.754Z,28.10
2023-05-20T09:11:13.308Z,28.00
2023-05-20T09:14:15.281Z,28.30
2023-05-20T09:17:20.518Z,28.20
2023-05-20T09:20:23.405Z,28.10
2023-05-20T09:23:26.018Z,28.30
2023-05-20T09:26:29.889Z,28.50
2023-05-20T09:29:33.831Z,28.40
2023-05-20T09:32:35.980Z,28.60
2023-05-20T09:35:38.443Z,28.40
2023-05-20T09:38:41.631Z,28.30
2023-05-20T09:42:17.776Z,27.70
2023-05-20T09:45:20.468Z,28.20
2023-05-20T09:48:25.156Z,28.00
2023-05-20T09:51:29.702Z,27.80
2023-05-20T09:54:32.306Z,27.60
2023-05-20T09:57:38.357Z,28.10
2023-05-20T10:00:40.794Z,28.10
2023-05-20T10:03:44.601Z,28.00
2023-05-20T10:06:46.864Z,28.20
2023-05-20T10:10:03.485Z,27.70
2023-05-20T10:13:17.800Z,27.80
2023-05-20T10:16:53.794Z,27.90
2023-05-20T10:20:00.567Z,28.20
2023-05-20T10:23:02.595Z,27.90
2023-05-20T10:26:07.324Z,27.80
2023-05-20T10:29:16.908Z,27.50
2023-05-20T10:32:33.145Z,27.50
2023-05-20T10:35:35.613Z,27.90
2023-05-20T10:38:37.919Z,27.70
2023-05-20T10:41:40.023Z,27.60
2023-05-20T10:44:42.714Z,27.50
2023-05-20T10:47:58.267Z,27.20
2023-05-20T10:51:05.949Z,27.50
2023-05-20T10:54:10.696Z,27.90
2023-05-20T10:57:13.083Z,27.60
2023-05-20T11:00:16.685Z,27.50
2023-05-20T11:03:21.941Z,27.50
2023-05-20T11:06:28.595Z,27.60
2023-05-20T11:09:32.013Z,27.30
2023-05-20T11:12:34.125Z,27.70
2023-05-20T11:15:49.182Z,27.50
2023-05-20T11:18:51.285Z,27.00
2023-05-20T11:21:54.060Z,27.20
2023-05-20T11:24:56.048Z,27.10
2023-05-20T11:27:59.435Z,27.20
2023-05-20T11:31:01.591Z,27.00
2023-05-20T11:34:04.387Z,27.00
2023-05-20T11:37:10.818Z,27.20
2023-05-20T11:40:13.792Z,27.60
2023-05-20T11:43:15.840Z,28.50
2023-05-20T11:46:21.287Z,28.10
2023-05-20T11:49:23.317Z,28.80
2023-05-20T11:52:28.556Z,28.60
2023-05-20T11:55:33.566Z,28.10
2023-05-20T11:58:35.764Z,28.50
2023-05-20T12:01:43.338Z,28.60
2023-05-20T12:04:45.855Z,29.00
2023-05-20T12:07:47.832Z,29.90
2023-05-20T12:10:50.227Z,29.60
2023-05-20T12:13:52.380Z,29.80
2023-05-20T12:16:55.070Z,30.20
2023-05-20T12:19:57.073Z,29.00
2023-05-20T12:23:00.309Z,29.00
2023-05-20T12:26:02.398Z,28.90
2023-05-20T12:29:04.780Z,29.00
2023-05-20T12:32:07.162Z,28.70
2023-05-20T12:35:10.364Z,28.90
2023-05-20T12:38:12.365Z,30.50
2023-05-20T12:41:14.973Z,30.70
2023-05-20T12:44:16.972Z,30.70
2023-05-20T12:47:20.636Z,30.70
2023-05-20T12:50:23.962Z,30.60
2023-05-20T12:53:26.319Z,31.30
2023-05-20T12:56:28.222Z,30.50
2023-05-20T12:59:30.438Z,30.40
2023-05-20T13:02:32.534Z,30.70
2023-05-20T13:05:34.935Z,30.00
2023-05-20T13:08:36.928Z,30.40
2023-05-20T13:11:39.229Z,30.90
2023-05-20T13:14:41.603Z,31.80
2023-05-20T13:17:43.901Z,31.50
2023-05-20T13:20:46.171Z,30.80
2023-05-20T13:23:48.469Z,30.30
2023-05-20T13:26:51.001Z,30.60
2023-05-20T13:29:53.392Z,31.50
2023-05-20T13:32:55.509Z,31.80
2023-05-20T13:35:57.854Z,31.80
2023-05-20T13:38:59.859Z,31.80
2023-05-20T13:42:02.597Z,31.80
2023-05-20T13:45:05.089Z,31.00
2023-05-20T13:48:07.394Z,30.80
2023-05-20T13:51:09.483Z,31.50
2023-05-20T13:54:11.680Z,31.40
2023-05-20T13:57:13.768Z,31.50
2023-05-20T14:00:16.245Z,30.10
2023-05-20T14:03:18.462Z,29.90
2023-05-20T14:06:20.960Z,30.40
2023-05-20T14:09:22.968Z,31.80
2023-05-20T14:12:25.345Z,31.40
2023-05-20T14:15:30.442Z,31.00
2023-05-20T14:18:32.900Z,31.60
2023-05-20T14:21:35.005Z,31.10
2023-05-20T14:24:37.591Z,30.80
2023-05-20T14:27:39.546Z,31.30
2023-05-20T14:30:42.104Z,30.80
2023-05-20T14:33:44.108Z,30.90
2023-05-20T14:36:46.666Z,30.20
2023-05-20T14:39:48.646Z,30.60
2023-05-20T14:42:50.941Z,30.70
2023-05-20T14:45:53.086Z,30.40
2023-05-20T14:48:55.725Z,31.20
2023-05-20T14:51:57.696Z,31.60
2023-05-20T14:55:00.004Z,32.00
2023-05-20T14:58:02.249Z,31.50
2023-05-20T15:01:04.554Z,30.90
2023-05-20T15:04:06.697Z,31.10
2023-05-20T15:07:09.036Z,31.20
2023-05-20T15:10:11.201Z,31.20
2023-05-20T15:13:13.490Z,31.30
2023-05-20T15:16:15.883Z,31.60
2023-05-20T15:19:18.177Z,30.50
2023-05-20T15:22:20.704Z,30.80
2023-05-20T15:25:22.904Z,30.60
2023-05-20T15:28:24.971Z,30.60
2023-05-20T15:31:27.222Z,30.80
2023-05-20T15:34:29.205Z,31.30
2023-05-20T15:37:31.572Z,31.80
2023-05-20T15:40:33.944Z,31.80
2023-05-20T15:43:36.495Z,31.30
2023-05-20T15:46:38.580Z,31.60
2023-05-20T15:49:41.288Z,31.30
2023-05-20T15:52:43.381Z,31.10
2023-05-20T15:55:46.125Z,30.50
2023-05-20T15:58:48.674Z,30.10
2023-05-20T16:01:51.350Z,30.50
2023-05-20T16:04:53.449Z,30.70
2023-05-20T16:07:56.980Z,30.90
2023-05-20T16:10:58.947Z,30.80
2023-05-20T16:14:01.172Z,31.40
2023-05-20T16:17:03.175Z,32.20
2023-05-20T16:20:08.987Z,31.40
2023-05-20T16:23:11.084Z,30.60
2023-05-20T16:26:14.282Z,30.60
2023-05-20T16:29:16.713Z,30.20
2023-05-20T16:32:21.808Z,30.20
2023-05-20T16:35:23.817Z,30.10
2023-05-20T16:38:26.342Z,30.20
2023-05-20T16:41:28.323Z,30.00
2023-05-20T16:44:30.855Z,30.50
2023-05-20T16:47:33.106Z,30.20
2023-05-20T16:50:35.521Z,30.30
2023-05-20T16:53:37.885Z,30.70
2023-05-20T16:56:40.181Z,30.50
2023-05-20T16:59:42.369Z,30.10
2023-05-20T17:02:44.680Z,30.10
2023-05-20T17:05:46.801Z,31.00
2023-05-20T17:08:49.040Z,30.80
2023-05-20T17:11:52.773Z,30.40
2023-05-20T17:14:55.011Z,30.50
2023-05-20T17:17:57.088Z,30.70
2023-05-20T17:20:59.336Z,30.70
2023-05-20T17:24:01.293Z,30.40
2023-05-20T17:27:03.832Z,30.10
2023-05-20T17:30:06.425Z,30.10
2023-05-20T17:33:09.070Z,30.00
2023-05-20T17:36:11.312Z,30.50
2023-05-20T17:39:13.867Z,30.70
2023-05-20T17:42:15.913Z,30.80
2023-05-20T17:45:18.203Z,30.70
2023-05-20T17:48:20.414Z,30.80
2023-05-20T17:51:22.933Z,31.00
2023-05-20T17:54:25.713Z,31.20
2023-05-20T17:57:28.422Z,31.30
2023-05-20T18:00:30.455Z,31.20
2023-05-20T18:03:32.841Z,32.00
2023-05-20T18:06:36.250Z,32.40
2023-05-20T18:09:39.558Z,32.40
2023-05-20T18:12:42.707Z,33.10
2023-05-20T18:15:45.212Z,33.00
2023-05-20T18:18:47.191Z,32.70
2023-05-20T18:21:49.550Z,33.10
2023-05-20T18:24:51.511Z,33.00
2023-05-20T18:27:53.796Z,33.20
2023-05-20T18:30:57.510Z,32.60
2023-05-20T18:33:59.967Z,32.40
2023-05-20T18:37:02.154Z,33.30
2023-05-20T18:40:06.476Z,33.90
2023-05-20T18:43:08.498Z,35.20
2023-05-20T18:46:10.836Z,34.70
2023-05-20T18:49:12.931Z,35.60
2023-05-20T18:52:15.401Z,35.00
2023-05-20T18:55:17.767Z,35.00
2023-05-20T18:58:20.663Z,35.20
2023-05-20T19:01:24.004Z,34.60
2023-05-20T19:04:26.667Z,34.60
2023-05-20T19:07:28.603Z,34.80
2023-05-20T19:10:30.941Z,34.10
2023-05-20T19:13:33.345Z,34.40
2023-05-20T19:16:35.978Z,34.10
2023-05-20T19:19:38.027Z,33.90
2023-05-20T19:22:40.468Z,33.60
2023-05-20T19:25:42.426Z,33.60
2023-05-20T19:28:45.066Z,33.30
2023-05-20T19:31:47.087Z,33.20
2023-05-20T19:34:49.391Z,33.60
2023-05-20T19:37:52.958Z,33.20
2023-05-20T19:40:55.340Z,33.50
2023-05-20T19:43:57.348Z,33.60
2023-05-20T19:46:59.670Z,33.50
2023-05-20T19:50:01.886Z,33.00
2023-05-20T19:53:07.263Z,32.80
2023-05-20T19:56:09.717Z,33.20
2023-05-20T19:59:12.014Z,34.30
2023-05-20T20:02:14.819Z,34.50
2023-05-20T20:05:17.267Z,33.70
2023-05-20T20:08:19.231Z,33.60
2023-05-20T20:11:21.502Z,34.00
2023-05-20T20:14:23.448Z,33.90
2023-05-20T20:17:25.849Z,33.50
2023-05-20T20:20:27.854Z,33.50
2023-05-20T20:23:30.096Z,33.40
2023-05-20T20:26:34.602Z,33.70
2023-05-20T20:29:37.103Z,34.00
2023-05-20T20:32:39.806Z,34.00
2023-05-20T20:35:42.669Z,34.00
2023-05-20T20:38:46.787Z,34.00
2023-05-20T20:41:52.843Z,33.30
2023-05-20T20:44:55.542Z,34.00
2023-05-20T20:48:01.614Z,33.60
2023-05-20T20:51:03.660Z,33.40
2023-05-20T20:54:08.036Z,33.30
2023-05-20T20:57:11.623Z,33.00
2023-05-20T21:00:16.458Z,33.00
2023-05-20T21:03:19.102Z,32.20
2023-05-20T21:06:25.875Z,33.00
2023-05-20T21:09:28.721Z,33.10
2023-05-20T21:12:30.973Z,33.30
2023-05-20T21:15:33.158Z,33.10
2023-05-20T21:18:36.682Z,33.20
2023-05-20T21:21:38.732Z,33.10
2023-05-20T21:24:41.439Z,33.10
2023-05-20T21:27:43.388Z,33.70
2023-05-20T21:30:45.771Z,34.40
2023-05-20T21:33:49.020Z,34.70
2023-05-20T21:36:51.256Z,34.40
2023-05-20T21:39:53.441Z,33.90
2023-05-20T21:42:55.853Z,33.90
2023-05-20T21:45:57.937Z,34.10
2023-05-20T21:49:00.365Z,34.10
2023-05-20T21:52:02.356Z,34.20
2023-05-20T21:55:04.924Z,34.00
2023-05-20T21:58:07.088Z,34.20
2023-05-20T22:01:09.954Z,34.40
2023-05-20T22:04:13.729Z,34.80
2023-05-20T22:07:18.556Z,34.50
2023-05-20T22:10:23.526Z,34.90
2023-05-20T22:13:26.122Z,35.40
2023-05-20T22:16:28.884Z,34.70
2023-05-20T22:19:32.504Z,35.40
2023-05-20T22:22:36.078Z,35.30
2023-05-20T22:25:38.358Z,34.70
2023-05-20T22:28:40.372Z,34.10
2023-05-20T22:31:42.653Z,33.30
2023-05-20T22:34:45.322Z,32.70
2023-05-20T22:37:48.253Z,32.80
2023-05-20T22:40:50.400Z,33.80
2023-05-20T22:43:52.879Z,33.00
2023-05-20T22:46:54.894Z,33.40
2023-05-20T22:49:57.531Z,33.40
2023-05-20T22:52:59.786Z,33.10
2023-05-20T22:56:02.336Z,32.70
2023-05-20T22:59:04.288Z,32.50
2023-05-20T23:02:06.815Z,32.50
2023-05-20T23:05:08.989Z,32.40
2023-05-20T23:08:11.920Z,31.80
2023-05-20T23:11:14.023Z,31.80
2023-05-20T23:14:16.447Z,31.80
2023-05-20T23:17:18.572Z,33.50
2023-05-20T23:20:22.176Z,33.50
2023-05-20T23:23:30.312Z,33.60
2023-05-20T23:26:34.564Z,33.50
2023-05-20T23:29:36.596Z,33.80
2023-05-20T23:32:38.973Z,34.10
2023-05-20T23:35:41.983Z,34.10
2023-05-20T23:38:45.317Z,34.00
2023-05-20T23:41:47.346Z,34.00
2023-05-20T23:44:49.641Z,35.10
2023-05-20T23:47:51.810Z,34.10
2023-05-20T23:50:54.134Z,34.10
2023-05-20T23:53:56.138Z,34.00
2023-05-20T23:57:00.755Z,33.90
